createdAt,value
2022-09-28T00:00:51.831Z,11.70
2022-09-28T00:05:54.723Z,11.70
2022-09-28T00:10:58.245Z,11.70
2022-09-28T00:16:04.408Z,11.70
2022-09-28T00:21:10.024Z,11.70
2022-09-28T00:26:12.895Z,11.70
2022-09-28T00:31:17.925Z,11.70
2022-09-28T00:36:20.926Z,11.70
2022-09-28T00:41:24.591Z,11.70
2022-09-28T00:46:34.001Z,11.70
2022-09-28T00:51:39.552Z,11.70
2022-09-28T00:56:44.002Z,11.70
2022-09-28T01:01:49.333Z,11.70
2022-09-28T01:06:53.125Z,11.70
2022-09-28T01:11:56.165Z,11.70
2022-09-28T01:17:06.698Z,11.70
2022-09-28T01:22:29.730Z,11.70
2022-09-28T01:27:36.554Z,11.80
2022-09-28T01:32:48.882Z,11.80
2022-09-28T01:37:57.907Z,11.80
2022-09-28T01:43:06.904Z,11.80
2022-09-28T01:48:12.515Z,11.80
2022-09-28T01:53:21.513Z,11.80
2022-09-28T01:58:31.190Z,11.80
2022-09-28T02:03:39.379Z,11.80
2022-09-28T02:08:50.348Z,11.80
2022-09-28T02:13:59.808Z,11.80
2022-09-28T02:19:04.261Z,11.80
2022-09-28T02:24:20.630Z,11.80
2022-09-28T02:29:26.263Z,11.80
2022-09-28T02:34:29.490Z,11.90
2022-09-28T02:39:32.641Z,11.80
2022-09-28T02:45:05.902Z,11.80
2022-09-28T02:50:21.952Z,11.90
2022-09-28T02:55:37.435Z,11.90
2022-09-28T03:00:47.482Z,11.90
2022-09-28T03:06:01.474Z,11.90
2022-09-28T03:11:15.764Z,11.90
2022-09-28T03:16:21.589Z,11.90
2022-09-28T03:21:25.937Z,11.90
2022-09-28T03:26:29.081Z,11.80
2022-09-28T03:31:33.616Z,11.80
2022-09-28T03:36:37.754Z,11.80
2022-09-28T03:41:41.099Z,11.80
2022-09-28T03:46:45.560Z,11.80
2022-09-28T03:51:48.812Z,11.70
2022-09-28T03:56:51.907Z,11.70
2022-09-28T04:01:56.252Z,11.70
2022-09-28T04:06:59.538Z,11.70
2022-09-28T04:12:04.494Z,11.60
2022-09-28T04:17:10.353Z,11.60
2022-09-28T04:22:14.255Z,11.60
2022-09-28T04:27:34.580Z,11.50
2022-09-28T04:32:39.912Z,11.60
2022-09-28T04:37:43.115Z,11.50
2022-09-28T04:42:46.076Z,11.50
2022-09-28T04:47:51.472Z,11.50
2022-09-28T04:53:20.973Z,11.50
2022-09-28T04:58:24.259Z,11.40
2022-09-28T05:03:29.131Z,11.40
2022-09-28T05:08:53.858Z,11.40
2022-09-28T05:13:57.052Z,11.40
2022-09-28T05:19:01.995Z,11.40
2022-09-28T05:24:07.557Z,11.30
2022-09-28T05:29:12.915Z,11.30
2022-09-28T05:34:49.466Z,11.20
2022-09-28T05:40:00.503Z,11.20
2022-09-28T05:45:04.325Z,11.20
2022-09-28T05:50:11.760Z,11.20
2022-09-28T05:55:15.508Z,11.20
2022-09-28T06:00:19.006Z,11.10
2022-09-28T06:05:31.184Z,11.10
2022-09-28T06:10:35.265Z,11.20
2022-09-28T06:15:39.554Z,11.10
2022-09-28T06:20:44.573Z,11.20
2022-09-28T06:25:52.010Z,11.20
2022-09-28T06:30:55.135Z,11.20
2022-09-28T06:36:01.542Z,11.20
2022-09-28T06:41:04.626Z,11.30
2022-09-28T06:46:09.718Z,11.30
2022-09-28T06:51:33.354Z,11.30
2022-09-28T06:56:54.626Z,11.30
2022-09-28T07:01:57.858Z,11.40
2022-09-28T07:07:22.196Z,11.40
2022-09-28T07:12:39.795Z,11.40
2022-09-28T07:18:03.905Z,11.40
2022-09-28T07:23:18.483Z,11.40
2022-09-28T07:28:41.490Z,11.40
2022-09-28T07:33:56.587Z,11.40
2022-09-28T07:39:12.192Z,11.50
2022-09-28T07:44:17.429Z,11.50
2022-09-28T07:49:22.947Z,11.50
2022-09-28T07:54:54.143Z,11.50
2022-09-28T08:00:15.653Z,11.50
2022-09-28T08:05:21.936Z,11.60
2022-09-28T08:10:26.399Z,11.60
2022-09-28T08:16:08.953Z,11.70
2022-09-28T08:21:46.572Z,11.80
2022-09-28T08:26:51.528Z,11.80
2022-09-28T08:31:58.305Z,11.90
2022-09-28T08:37:22.104Z,12.00
2022-09-28T08:42:45.992Z,12.10
2022-09-28T08:48:37.837Z,12.20
2022-09-28T08:54:01.403Z,12.20
2022-09-28T08:59:16.045Z,12.30
2022-09-28T09:04:21.209Z,12.30
2022-09-28T09:09:59.798Z,12.40
2022-09-28T09:15:38.768Z,12.40
2022-09-28T09:20:56.659Z,12.40
2022-09-28T09:26:16.499Z,12.40
2022-09-28T09:31:36.128Z,12.40
2022-09-28T09:36:59.646Z,12.40
2022-09-28T09:42:49.047Z,12.40
2022-09-28T09:48:20.625Z,12.50
2022-09-28T09:53:28.789Z,12.60
2022-09-28T09:58:36.613Z,12.70
2022-09-28T10:04:21.779Z,12.80
2022-09-28T10:09:29.968Z,12.90
2022-09-28T10:14:46.307Z,13.00
2022-09-28T10:19:51.486Z,13.00
2022-09-28T10:25:15.320Z,13.10
2022-09-28T10:30:22.464Z,13.10
2022-09-28T10:35:30.476Z,13.20
2022-09-28T10:40:44.244Z,13.20
2022-09-28T10:45:48.443Z,13.20
2022-09-28T10:51:05.827Z,13.20
2022-09-28T10:56:21.409Z,13.30
2022-09-28T11:01:34.454Z,13.30
2022-09-28T11:12:07.449Z,13.40
2022-09-28T11:17:16.967Z,13.50
2022-09-28T11:22:26.079Z,13.60
2022-09-28T11:27:33.559Z,13.70
2022-09-28T11:32:44.076Z,13.80
2022-09-28T11:38:15.854Z,13.80
2022-09-28T11:43:52.874Z,13.80
2022-09-28T11:48:59.029Z,13.90
2022-09-28T11:54:14.224Z,13.90
2022-09-28T11:59:23.394Z,14.00
2022-09-28T12:04:34.918Z,14.00
2022-09-28T12:09:46.512Z,14.00
2022-09-28T12:15:00.818Z,14.10
2022-09-28T12:20:13.138Z,14.20
2022-09-28T12:25:22.078Z,14.40
2022-09-28T12:30:26.473Z,14.50
2022-09-28T12:35:40.507Z,14.60
2022-09-28T12:40:53.781Z,14.60
2022-09-28T12:46:29.532Z,14.70
2022-09-28T12:51:43.626Z,14.80
2022-09-28T12:57:00.415Z,15.00
2022-09-28T13:02:27.507Z,15.10
2022-09-28T13:07:38.117Z,15.30
2022-09-28T13:12:55.757Z,15.50
2022-09-28T13:18:09.126Z,15.50
2022-09-28T13:23:20.589Z,15.50
2022-09-28T13:28:27.167Z,15.40
2022-09-28T13:33:36.732Z,15.30
2022-09-28T13:38:50.266Z,15.30
2022-09-28T13:44:12.977Z,15.30
2022-09-28T13:49:23.918Z,15.30
2022-09-28T13:54:46.204Z,15.30
2022-09-28T14:00:10.353Z,15.30
2022-09-28T14:05:47.806Z,15.30
2022-09-28T14:10:52.730Z,15.30
2022-09-28T14:16:21.556Z,15.40
2022-09-28T14:21:58.027Z,15.50
2022-09-28T14:27:28.381Z,15.60
2022-09-28T14:32:37.452Z,15.50
2022-09-28T14:38:00.322Z,15.50
2022-09-28T14:43:26.898Z,15.50
2022-09-28T14:48:48.385Z,15.70
2022-09-28T14:53:52.479Z,15.90
2022-09-28T14:58:58.851Z,16.00
2022-09-28T15:04:05.426Z,16.00
2022-09-28T15:09:29.569Z,16.00
2022-09-28T15:14:45.386Z,15.90
2022-09-28T15:19:58.233Z,15.80
2022-09-28T15:25:03.186Z,15.70
2022-09-28T15:30:22.391Z,15.60
2022-09-28T15:35:28.387Z,15.50
2022-09-28T15:40:34.744Z,15.50
2022-09-28T15:45:40.547Z,15.40
2022-09-28T15:50:58.984Z,15.30
2022-09-28T15:56:09.844Z,15.30
2022-09-28T16:01:35.832Z,15.20
2022-09-28T16:06:41.787Z,15.20
2022-09-28T16:11:45.117Z,15.20
2022-09-28T16:16:49.323Z,15.10
2022-09-28T16:21:55.807Z,15.10
2022-09-28T16:27:01.551Z,15.10
2022-09-28T16:32:35.036Z,15.00
2022-09-28T16:37:42.532Z,15.00
2022-09-28T16:42:49.033Z,14.90
2022-09-28T16:47:53.483Z,14.90
2022-09-28T16:53:24.715Z,14.80
2022-09-28T16:58:28.137Z,14.70
2022-09-28T17:03:31.217Z,14.70
2022-09-28T17:08:36.034Z,14.60
2022-09-28T17:13:38.948Z,14.50
2022-09-28T17:18:42.129Z,14.40
2022-09-28T17:23:47.220Z,14.40
2022-09-28T17:28:50.211Z,14.30
2022-09-28T17:33:54.423Z,14.20
2022-09-28T17:38:58.655Z,14.10
2022-09-28T17:44:02.975Z,14.10
2022-09-28T17:49:08.364Z,14.00
2022-09-28T17:54:13.654Z,14.00
2022-09-28T17:59:18.915Z,14.00
2022-09-28T18:04:50.136Z,14.00
2022-09-28T18:09:46.020Z,14.00
2022-09-28T18:14:48.918Z,13.90
2022-09-28T18:19:51.799Z,13.90
2022-09-28T18:24:56.083Z,13.90
2022-09-28T18:29:59.132Z,13.90
2022-09-28T18:35:02.030Z,13.80
2022-09-28T18:40:07.448Z,13.80
2022-09-28T18:45:12.011Z,13.80
2022-09-28T18:50:15.412Z,13.70
2022-09-28T18:55:19.982Z,13.70
2022-09-28T19:00:22.931Z,13.70
2022-09-28T19:05:27.420Z,13.60
2022-09-28T19:10:31.655Z,13.60
2022-09-28T19:15:34.639Z,13.50
2022-09-28T19:20:37.615Z,13.40
2022-09-28T19:25:41.941Z,13.40
2022-09-28T19:30:44.989Z,13.40
2022-09-28T19:35:56.326Z,13.30
2022-09-28T19:41:01.172Z,13.40
2022-09-28T19:46:05.694Z,13.30
2022-09-28T19:51:08.771Z,13.20
2022-09-28T19:56:13.022Z,13.20
2022-09-28T20:01:16.044Z,13.10
2022-09-28T20:06:19.003Z,13.00
2022-09-28T20:11:23.444Z,12.90
2022-09-28T20:16:28.772Z,12.90
2022-09-28T20:21:31.740Z,12.90
2022-09-28T20:26:37.766Z,12.90
2022-09-28T20:31:42.602Z,12.80
2022-09-28T20:36:45.538Z,12.80
2022-09-28T20:41:49.819Z,12.80
2022-09-28T20:46:52.847Z,12.80
2022-09-28T20:51:55.890Z,12.80
2022-09-28T20:57:00.188Z,12.80
2022-09-28T21:02:03.272Z,12.80
2022-09-28T21:07:06.322Z,12.80
2022-09-28T21:12:10.651Z,12.80
2022-09-28T21:17:13.569Z,12.80
2022-09-28T21:22:16.503Z,12.80
2022-09-28T21:27:20.793Z,12.70
2022-09-28T21:32:24.183Z,12.70
2022-09-28T21:37:27.100Z,12.70
2022-09-28T21:42:31.378Z,12.70
2022-09-28T21:47:34.292Z,12.60
2022-09-28T21:52:37.284Z,12.60
2022-09-28T21:57:41.648Z,12.60
2022-09-28T22:02:44.955Z,12.50
2022-09-28T22:07:48.020Z,12.40
2022-09-28T22:12:52.302Z,12.40
2022-09-28T22:17:55.283Z,12.30
2022-09-28T22:22:58.212Z,12.30
2022-09-28T22:28:02.885Z,12.20
2022-09-28T22:33:05.830Z,12.20
2022-09-28T22:38:08.788Z,12.20
2022-09-28T22:43:13.092Z,12.20
2022-09-28T22:48:16.031Z,12.10
2022-09-28T22:53:19.264Z,12.10
2022-09-28T22:58:23.609Z,12.10
2022-09-28T23:03:26.607Z,12.00
2022-09-28T23:08:29.856Z,12.00
2022-09-28T23:13:35.054Z,11.90
2022-09-28T23:18:40.800Z,11.90
2022-09-28T23:23:44.137Z,11.90
2022-09-28T23:28:48.505Z,11.90
2022-09-28T23:33:52.210Z,11.90
2022-09-28T23:38:55.446Z,11.80
2022-09-28T23:43:59.733Z,11.90
2022-09-28T23:49:03.016Z,11.90
2022-09-28T23:54:06.696Z,11.90
2022-09-28T23:59:11.003Z,11.90
